Latest Weather Observations for Trepell

IDQ60801

Issued at 9:02 am EST Wednesday 22 February 2017 (issued every 30 minutes, with the page automatically refreshed every 10 minutes)

About weather observations | Map of weather stations | Latest weather observations for QLD | Other Formats
Station Details ID: 037036 Name: TREPELL AIRPORT Lat: -21.84 Lon: 140.89 Height: 266.2 m
Data from the previous 72 hours. | See also: Recent months at Trepell
Date/Time
EST
Temp
°C
App
Temp
°C
Dew
Point
°C
Rel
Hum
%
Delta-T
°C
Wind Press
QNH
hPa
Press
MSL
hPa
Rain since
9am
mm
Dir  Spd
km/h
Gust
km/h
Spd
kts
Gust
kts
22/09:00am 25.7 24.2 18.6 65 4.6 NNE 24 26 13 14 1014.0 1012.0 0.0
22/08:30am 24.7 23.5 18.4 68 4.0 NE 22 28 12 15 1013.8 1011.8 0.0
22/08:00am 24.3 23.4 18.2 68 3.9 NE 20 28 11 15 1013.7 1011.7 0.0
22/07:30am 24.1 24.0 17.8 68 4.0 NNE 15 19 8 10 1013.5 1011.5 0.0
22/07:00am 23.8 23.7 17.8 69 3.8 NNE 15 19 8 10 1013.3 1011.3 0.0
22/06:30am 23.5 23.0 17.7 70 3.7 NNE 17 20 9 11 1013.0 1010.9 0.0
22/06:00am 23.6 23.1 17.8 70 3.7 NNE 17 22 9 12 1012.7 1010.6 0.0
22/05:30am 23.6 23.5 17.8 70 3.7 NNE 15 20 8 11 1012.7 1010.6 0.0
22/05:00am 23.8 23.3 17.8 69 3.8 NE 17 20 9 11 1012.6 1010.5 0.0
22/04:30am 23.9 23.2 17.4 67 4.1 NNE 17 22 9 12 1012.3 1010.2 0.0
22/04:00am 24.2 23.4 17.2 65 4.4 NE 17 22 9 12 1012.0 1009.9 0.0
22/03:30am 24.3 23.9 17.1 64 4.5 NNE 15 20 8 11 1011.7 1009.7 0.0
22/03:00am 24.4 23.8 17.6 66 4.3 NNE 17 22 9 12 1011.8 1009.8 0.0
22/02:30am 24.6 23.5 17.8 66 4.3 NNE 20 28 11 15 1012.1 1010.0 0.0
22/02:00am 25.0 23.5 17.7 64 4.6 NE 22 30 12 16 1012.5 1010.4 0.0
22/01:30am 25.2 23.4 17.9 64 4.6 NNE 24 33 13 18 1012.7 1010.6 0.0
22/01:00am 25.2 22.9 18.4 66 4.4 NNE 28 35 15 19 1013.0 1010.9 0.0
22/12:30am 25.8 22.8 17.7 61 5.1 NNE 30 39 16 21 1013.0 1010.9 0.0
22/12:00am 26.3 23.9 17.4 58 5.6 NNE 26 35 14 19 1013.2 1011.2 0.0
 
Date/Time
EST
Temp
°C
App
Temp
°C
Dew
Point
°C
Rel
Hum
%
Delta-T
°C
Wind Press
QNH
hPa
Press
MSL
hPa
Rain since
9am
mm
Dir  Spd
km/h
Gust
km/h
Spd
kts
Gust
kts
21/11:30pm 26.8 24.1 16.7 54 6.3 NNE 26 33 14 18 1013.2 1011.2 0.0
21/11:00pm 26.7 25.1 15.1 49 7.1 NNE 17 22 9 12 1013.5 1011.5 0.0
21/10:30pm 26.7 25.5 15.1 49 7.1 NNE 15 19 8 10 1013.4 1011.4 0.0
21/10:00pm 26.9 25.6 15.9 51 6.8 NNE 17 22 9 12 1013.4 1011.4 0.0
21/09:30pm 26.9 26.0 16.8 54 6.3 NNE 17 20 9 11 1013.1 1011.0 0.0
21/09:00pm 27.0 26.1 16.9 54 6.4 NNE 17 20 9 11 1012.9 1010.8 0.0
21/08:30pm 26.9 26.4 16.8 54 6.3 NE 15 20 8 11 1012.7 1010.6 0.0
21/08:00pm 27.1 25.7 17.0 54 6.4 NE 20 28 11 15 1012.6 1010.5 0.0
21/07:30pm 27.5 24.4 16.5 51 6.9 NE 28 35 15 19 1012.0 1009.9 0.0
21/07:00pm 28.1 23.9 15.7 46 7.7 NNE 32 39 17 21 1011.6 1009.6 0.0
21/06:30pm 29.7 25.2 15.0 40 9.1 NNE 32 41 17 22 1011.2 1009.2 0.0
21/06:00pm 31.0 25.3 14.2 36 10.3 NNE 37 46 20 25 1010.7 1008.7 0.0
21/05:30pm 34.1 30.9 11.9 26 13.3 NNE 20 32 11 17 1010.4 1008.4 0.0
21/05:00pm 34.3 31.7 10.8 24 13.9 NNE 15 24 8 13 1010.4 1008.4 0.0
21/04:30pm 34.8 31.8 10.6 23 14.3 ENE 17 26 9 14 1010.4 1008.4 0.0
21/04:00pm 34.8 31.1 9.3 21 14.8 ENE 19 28 10 15 1010.6 1008.6 0.0
21/03:30pm 34.9 31.7 8.6 20 15.0 NNE 15 28 8 15 1010.6 1008.6 0.0
21/03:00pm 35.2 31.9 8.1 19 15.4 ENE 15 26 8 14 1011.1 1009.1 0.0
21/02:30pm 35.2 31.0 8.1 19 15.4 NE 20 32 11 17 1011.3 1009.3 0.0
21/02:00pm 34.4 30.4 8.9 21 14.6 NE 20 28 11 15 1011.6 1009.6 0.0
21/01:30pm 35.0 31.3 9.4 21 14.8 NE 19 32 10 17 1012.0 1009.9 0.0
21/01:00pm 35.1 31.0 8.8 20 15.1 ENE 20 33 11 18 1012.5 1010.4 0.0
21/12:30pm 33.2 31.4 7.9 21 14.2 NE 7 17 4 9 1012.9 1010.8 0.0
21/12:00pm 32.5 29.1 5.9 19 14.4 E 13 20 7 11 1013.1 1011.0 0.0
21/11:30am 32.5 29.1 5.9 19 14.4 ENE 13 24 7 13 1013.1 1011.0 0.0
21/11:00am 32.0 29.8 5.5 19 14.2 SSE 6 17 3 9 1013.3 1011.3 0.0
21/10:30am 29.7 27.1 4.4 20 13.2 S 7 13 4 7 1014.1 1012.1 0.0
21/10:00am 28.6 26.0 6.1 24 12.0 SSW 9 13 5 7 1013.9 1011.9 0.0
21/09:30am 27.4 26.0 9.7 33 9.9 SSW 7 13 4 7 1014.0 1012.0 0.0
21/09:00am 26.4 26.6 10.5 37 9.0 CALM 0 7 0 4 1013.5 1011.5 0.0
21/08:30am 25.1 23.5 8.6 35 9.0 SSW 7 9 4 5 1013.3 1011.3 0.0
21/08:00am 24.9 23.2 10.0 39 8.3 S 9 15 5 8 1012.9 1010.8 0.0
21/07:30am 23.3 23.2 9.3 41 7.7 CALM 0 0 0 0 1012.7 1010.6 0.0
21/07:00am 22.5 20.4 5.9 34 8.5 WSW 6 9 3 5 1012.7 1010.6 0.0
21/06:30am 22.1 20.1 6.3 36 8.1 ENE 6 7 3 4 1012.4 1010.3 0.0
21/06:00am 21.9 19.2 5.8 35 8.2 E 9 11 5 6 1012.2 1010.1 0.0
21/05:30am 22.0 19.3 3.6 30 9.0 E 7 9 4 5 1012.2 1010.1 0.0
21/05:00am 21.8 19.2 4.4 32 8.6 ENE 7 9 4 5 1012.1 1010.0 0.0
21/04:30am 22.6 20.0 4.2 30 9.1 ENE 7 7 4 4 1012.2 1010.1 0.0
21/04:00am 23.4 20.9 3.9 28 9.7 E 6 7 3 4 1012.3 1010.2 0.0
21/03:30am 22.9 19.9 3.9 29 9.4 ENE 9 11 5 6 1012.2 1010.1 0.0
21/03:00am 23.6 20.9 2.4 25 10.2 E 6 7 3 4 1012.3 1010.2 0.0
21/02:30am 23.7 22.3 3.6 27 9.9 CALM 0 0 0 0 1012.6 1010.5 0.0
21/02:00am 24.1 22.2 2.9 25 10.4 NNW 2 7 1 4 1012.8 1010.7 0.0
21/01:30am 24.4 21.0 1.9 23 10.8 NE 9 13 5 7 1012.8 1010.7 0.0
21/01:00am 25.2 21.3 1.3 21 11.4 N 11 13 6 7 1013.2 1011.2 0.0
21/12:30am 25.0 21.6 1.8 22 11.2 N 9 13 5 7 1013.1 1011.0 0.0
21/12:00am 25.5 22.5 2.2 22 11.4 W 7 7 4 4 1013.0 1010.9 0.0
 
Date/Time
EST
Temp
°C
App
Temp
°C
Dew
Point
°C
Rel
Hum
%
Delta-T
°C
Wind Press
QNH
hPa
Press
MSL
hPa
Rain since
9am
mm
Dir  Spd
km/h
Gust
km/h
Spd
kts
Gust
kts
20/11:30pm 25.6 22.4 1.0 20 11.7 SSE 7 9 4 5 1012.7 1010.6 0.0
20/11:00pm 25.7 22.1 0.4 19 12.0 SSE 9 11 5 6 1012.6 1010.5 0.0
20/10:30pm 26.4 22.4 0.2 18 12.4 S 11 13 6 7 1012.6 1010.5 0.0
20/10:00pm 27.2 22.8 0.1 17 12.9 S 13 17 7 9 1012.3 1010.2 0.0
20/09:30pm 27.8 23.3 -0.3 16 13.3 S 13 19 7 10 1011.7 1009.7 0.0
20/09:00pm 28.6 23.7 -0.5 15 13.8 S 15 20 8 11 1011.4 1009.4 0.0
20/08:30pm 29.1 24.3 -0.1 15 14.0 S 15 20 8 11 1011.2 1009.2 0.0
20/08:00pm 29.7 24.4 -0.6 14 14.5 SSW 17 20 9 11 1010.9 1008.9 0.0
20/07:30pm 29.9 26.2 2.2 17 13.9 SSE 11 11 6 6 1010.6 1008.6 0.0
20/07:00pm 31.1 27.2 1.4 15 14.8 SSE 11 13 6 7 1010.4 1008.4 0.0
20/06:30pm 32.4 28.4 0.5 13 15.8 S 11 15 6 8 1009.9 1007.9 0.0
20/06:00pm 33.0 28.7 0.9 13 16.1 S 13 19 7 10 1009.6 1007.5 0.0
20/05:30pm 33.9 29.3 1.6 13 16.4 SSE 15 22 8 12 1009.5 1007.4 0.0
20/05:00pm 34.0 29.1 1.7 13 16.5 SSE 17 24 9 13 1009.7 1007.7 0.0
20/04:30pm 34.1 29.0 0.7 12 16.8 SE 17 22 9 12 1009.7 1007.7 0.0
20/04:00pm 33.9 29.7 1.6 13 16.5 SSE 13 20 7 11 1009.6 1007.5 0.0
20/03:30pm 33.9 29.7 1.6 13 16.4 SSE 13 22 7 12 1009.7 1007.7 0.0
20/03:00pm 34.6 29.9 1.1 12 17.0 SSE 15 22 8 12 1009.9 1007.9 0.0
20/02:30pm 35.3 30.5 2.7 13 17.0 SSE 17 35 9 19 1010.1 1008.1 0.0
20/02:00pm 35.1 29.5 1.5 12 17.2 S 20 30 11 16 1010.4 1008.4 0.0
20/01:30pm 33.4 28.2 0.1 12 16.5 S 17 24 9 13 1011.1 1009.1 0.0
20/01:00pm 33.3 28.1 0.1 12 16.4 SSE 17 28 9 15 1011.6 1009.6 0.0
20/12:30pm 31.8 27.0 0.0 13 15.6 ESE 15 26 8 14 1012.0 1009.9 0.0
20/12:00pm 31.0 26.0 1.4 15 14.8 SE 17 26 9 14 1012.3 1010.2 0.0
20/11:30am 31.1 24.6 0.5 14 15.0 ESE 24 35 13 19 1012.6 1010.5 0.0
20/11:00am 30.6 24.4 1.9 16 14.4 ESE 24 32 13 17 1013.0 1010.9 0.0
20/10:30am 29.1 23.0 0.7 16 13.8 SE 22 33 12 18 1013.3 1011.3 0.0
20/10:00am 28.4 21.6 1.0 17 13.3 SE 26 37 14 20 1013.6 1011.6 0.0
20/09:30am 27.6 20.2 1.9 19 12.6 SE 30 37 16 20 1013.6 1011.6 0.0
20/09:00am 26.6 20.0 1.8 20 12.1 SSE 26 33 14 18 1013.4 1011.4 0.0
20/08:30am 25.0 20.2 2.4 23 11.0 S 17 24 9 13 1013.2 1011.2 0.0
20/08:00am 22.4 18.9 3.5 29 9.2 SSW 11 15 6 8 1013.2 1011.2 0.0
20/07:30am 20.8 17.3 3.5 32 8.4 SSW 11 15 6 8 1013.0 1010.9 0.0
20/07:00am 19.9 16.3 3.2 33 8.0 SSW 11 13 6 7 1012.7 1010.6 0.0
20/06:30am 19.6 16.0 2.9 33 7.9 SW 11 13 6 7 1012.3 1010.2 0.0
20/06:00am 19.6 16.4 2.9 33 7.9 SSW 9 11 5 6 1011.8 1009.8 0.0
20/05:30am 19.9 16.3 2.7 32 8.1 SSW 11 13 6 7 1011.5 1009.5 0.0
20/05:00am 20.2 16.5 2.5 31 8.4 SSW 11 15 6 8 1011.0 1009.0 0.0
20/04:30am 20.7 16.6 2.5 30 8.6 SSW 13 17 7 9 1011.0 1009.0 0.0
20/04:00am 20.8 17.2 3.1 31 8.5 SSW 11 15 6 8 1010.9 1008.9 0.0
20/03:30am 21.5 17.5 2.7 29 9.0 SSW 13 17 7 9 1010.8 1008.8 0.0
20/03:00am 22.1 17.7 2.8 28 9.3 SSW 15 19 8 10 1010.8 1008.8 0.0
20/02:30am 22.1 18.2 3.3 29 9.1 SSW 13 17 7 9 1011.0 1009.0 0.0
20/02:00am 22.7 18.8 3.3 28 9.5 SSW 13 17 7 9 1011.2 1009.2 0.0
20/01:30am 23.2 19.4 3.7 28 9.6 SSW 13 17 7 9 1011.1 1009.1 0.0
20/01:00am 23.4 19.7 4.4 29 9.5 SSW 13 17 7 9 1011.2 1009.2 0.0
20/12:30am 23.7 20.0 4.6 29 9.6 SSW 13 15 7 8 1011.3 1009.3 0.0
20/12:00am 24.4 21.1 4.7 28 10.0 SSW 11 15 6 8 1011.6 1009.6 0.0
 
Date/Time
EST
Temp
°C
App
Temp
°C
Dew
Point
°C
Rel
Hum
%
Delta-T
°C
Wind Press
QNH
hPa
Press
MSL
hPa
Rain since
9am
mm
Dir  Spd
km/h
Gust
km/h
Spd
kts
Gust
kts
19/11:30pm 25.7 21.7 4.8 26 10.7 SSW 15 19 8 10 1011.7 1009.7 0.0
19/11:00pm 25.7 22.2 5.3 27 10.5 SSW 13 17 7 9 1011.6 1009.6 0.0
19/10:30pm 25.8 23.1 5.4 27 10.6 SW 9 11 5 6 1011.4 1009.4 0.0
19/10:00pm 26.7 23.9 5.1 25 11.2 SW 9 11 5 6 1011.2 1009.2 0.0
19/09:30pm 27.2 24.0 4.9 24 11.5 SW 11 13 6 7 1010.8 1008.8 0.0
19/09:00pm 27.0 23.8 5.3 25 11.3 SW 11 13 6 7 1010.6 1008.6 0.0
19/08:30pm 27.8 24.5 4.8 23 11.9 SW 11 13 6 7 1010.5 1008.5 0.0
19/08:00pm 28.3 25.4 4.6 22 12.3 SW 9 11 5 6 1010.2 1008.2 0.0
19/07:30pm 29.6 26.3 4.3 20 13.1 SW 11 15 6 8 1010.1 1008.1 0.0
19/07:00pm 30.4 26.3 4.2 19 13.7 SW 15 19 8 10 1009.8 1007.8 0.0
19/06:30pm 31.2 26.3 4.1 18 14.2 SW 19 24 10 13 1009.6 1007.5 0.0
19/06:00pm 31.5 26.4 4.3 18 14.3 SSW 20 26 11 14 1009.4 1007.3 0.0
19/05:30pm 32.5 27.4 4.3 17 14.9 SSW 20 28 11 15 1009.2 1007.1 0.0
19/05:00pm 32.8 27.4 4.6 17 15.0 SSW 22 32 12 17 1008.9 1006.8 0.0
19/04:30pm 32.7 28.3 4.5 17 15.0 SSW 17 26 9 14 1009.0 1006.9 0.0
19/04:00pm 33.0 29.3 4.7 17 15.1 S 13 20 7 11 1009.0 1006.9 0.0
19/03:30pm 33.0 28.0 4.7 17 15.1 SSW 20 28 11 15 1009.0 1006.9 0.0
19/03:00pm 33.4 28.7 5.0 17 15.3 SSW 19 28 10 15 1009.0 1006.9 0.0
19/02:30pm 33.8 29.2 5.4 17 15.4 S 19 30 10 16 1009.5 1007.4 0.0
19/02:00pm 33.4 29.0 5.0 17 15.3 SSE 17 26 9 14 1009.8 1007.8 0.0
19/01:30pm 31.8 27.7 4.6 18 14.4 S 15 26 8 14 1010.3 1008.3 0.0
19/01:00pm 31.6 26.6 4.4 18 14.3 S 20 32 11 17 1011.0 1009.0 0.0
19/12:30pm 31.2 27.0 5.6 20 13.7 S 17 26 9 14 1011.5 1009.5 0.0
19/12:00pm 30.4 26.2 5.6 21 13.2 S 17 26 9 14 1012.2 1010.1 0.0
19/11:30am 29.7 25.6 6.4 23 12.5 S 17 24 9 13 1012.5 1010.4 0.0
19/11:00am 27.5 23.3 5.7 25 11.5 S 17 22 9 12 1012.8 1010.7 0.0
19/10:30am 26.7 22.4 5.1 25 11.2 S 17 24 9 13 1013.1 1011.0 0.0
19/10:00am 26.1 21.5 5.7 27 10.6 SSW 19 28 10 15 1013.0 1010.9 0.0
19/09:30am 26.0 21.3 6.1 28 10.4 SSW 20 26 11 14 1012.8 1010.7 0.0

Other Formats:

Comma delimited format used in spreadsheet applications
http://www.bom.gov.au/fwo/IDQ60801/IDQ60801.94338.axf

JavaScript Object Notation format (JSON) in row-major order
http://www.bom.gov.au/fwo/IDQ60801/IDQ60801.94338.json